Time;durP1;ratioP1;P1;durP2;ratioP2;P2;SDS_P1;SDS_P2;PMS_P1;PMS_P2;Temp;Humidity;BMP_temperature;BMP_pressure;BME280_temperature;BME280_humidity;BME280_pressure;Samples;Min_cycle;Max_cycle;Signal;HPM_P1;HPM_P2
2022/10/11 00:00:51;;;;;;;16.57;7.57;;;11.90;74.60;;;;;;4974322;28;20227;-86
2022/10/11 00:03:17;;;;;;;20.60;7.70;;;11.90;74.30;;;;;;4974414;28;20203;-87
2022/10/11 00:05:46;;;;;;;15.60;8.10;;;12.00;74.20;;;;;;4975911;28;20188;-86
2022/10/11 00:08:13;;;;;;;14.60;7.30;;;12.00;72.80;;;;;;4977122;28;20234;-86
2022/10/11 00:10:39;;;;;;;17.70;7.63;;;12.00;71.90;;;;;;4976100;28;20172;-87
2022/10/11 00:13:05;;;;;;;18.33;7.73;;;12.00;72.30;;;;;;4974289;28;20180;-86
2022/10/11 00:15:31;;;;;;;21.70;8.10;;;12.00;74.20;;;;;;4978329;28;20229;-87
2022/10/11 00:17:57;;;;;;;13.90;7.87;;;11.80;74.30;;;;;;4978071;28;20254;-87
2022/10/11 00:20:22;;;;;;;14.23;7.70;;;11.80;77.40;;;;;;4977056;28;20278;-86
2022/10/11 00:22:48;;;;;;;16.30;7.60;;;11.60;79.40;;;;;;4976798;28;20203;-87
2022/10/11 00:25:14;;;;;;;17.50;8.70;;;11.80;76.90;;;;;;4977472;28;20211;-86
2022/10/11 00:27:40;;;;;;;15.47;7.77;;;11.80;77.40;;;;;;4976946;28;20214;-87
2022/10/11 00:30:07;;;;;;;17.17;7.30;;;11.50;79.80;;;;;;4976312;28;20183;-85
2022/10/11 00:32:34;;;;;;;14.47;7.60;;;11.50;82.60;;;;;;4977506;28;20186;-88
2022/10/11 00:35:05;;;;;;;15.50;6.97;;;11.40;84.70;;;;;;4976949;28;20176;-86
2022/10/11 00:37:35;;;;;;;16.57;6.93;;;11.30;86.80;;;;;;4976773;28;20576;-87
2022/10/11 00:40:01;;;;;;;13.53;6.90;;;11.30;90.00;;;;;;4976511;28;20200;-87
2022/10/11 00:42:26;;;;;;;15.93;7.07;;;11.20;90.80;;;;;;4976966;28;20215;-88
2022/10/11 00:45:34;;;;;;;17.50;7.20;;;11.40;90.90;;;;;;4976717;28;20882;-87
2022/10/11 00:48:13;;;;;;;16.07;7.57;;;11.20;91.30;;;;;;4976545;28;20218;-88
2022/10/11 00:50:42;;;;;;;17.20;8.50;;;11.10;92.30;;;;;;4977156;28;20180;-87
2022/10/11 00:53:10;;;;;;;14.27;8.03;;;11.20;91.20;;;;;;4976515;28;20187;-87
2022/10/11 00:55:49;;;;;;;21.67;8.50;;;11.40;87.90;;;;;;4976363;28;20205;-88
2022/10/11 00:58:24;;;;;;;15.63;8.00;;;11.30;87.40;;;;;;4977918;28;20167;-86
2022/10/11 01:00:53;;;;;;;18.23;7.33;;;11.30;86.40;;;;;;4976497;28;20207;-87
2022/10/11 01:03:23;;;;;;;15.37;7.87;;;11.20;87.50;;;;;;4977959;28;20164;-88
2022/10/11 01:05:50;;;;;;;14.43;7.13;;;11.00;90.30;;;;;;4976518;28;20171;-85
2022/10/11 01:08:17;;;;;;;15.10;6.97;;;11.00;92.10;;;;;;4976474;28;20179;-88
2022/10/11 01:10:43;;;;;;;13.40;7.83;;;10.90;93.50;;;;;;4976357;28;20186;-85
2022/10/11 01:13:39;;;;;;;15.27;6.73;;;11.10;94.20;;;;;;4977211;28;20548;-88
2022/10/11 01:16:29;;;;;;;16.10;7.60;;;10.90;94.10;;;;;;4979485;28;20721;-87
2022/10/11 01:19:28;;;;;;;14.53;7.67;;;11.00;94.40;;;;;;4981186;28;20176;-87
2022/10/11 01:22:04;;;;;;;15.00;7.50;;;11.00;94.10;;;;;;4977062;28;20258;-86
2022/10/11 01:25:07;;;;;;;21.13;8.20;;;11.20;91.70;;;;;;4976190;28;20278;-88
2022/10/11 01:28:09;;;;;;;17.97;7.30;;;11.20;90.20;;;;;;4976053;28;20187;-86
2022/10/11 01:30:35;;;;;;;17.00;7.50;;;11.00;90.50;;;;;;4963410;28;20179;-87
2022/10/11 01:33:10;;;;;;;16.60;8.07;;;10.90;91.80;;;;;;4977558;28;20180;-85
2022/10/11 01:35:46;;;;;;;15.90;8.13;;;10.90;92.70;;;;;;4979568;28;20205;-87
2022/10/11 01:38:41;;;;;;;23.63;8.13;;;10.90;93.50;;;;;;4977506;28;20179;-87
2022/10/11 01:41:15;;;;;;;16.23;7.73;;;10.80;94.90;;;;;;4994052;28;20203;-87
2022/10/11 01:43:42;;;;;;;15.83;7.40;;;10.80;94.30;;;;;;4994842;28;20723;-87
2022/10/11 01:46:10;;;;;;;14.70;6.93;;;10.80;94.90;;;;;;4995376;28;20265;-87
2022/10/11 01:48:49;;;;;;;16.77;7.93;;;10.70;95.70;;;;;;4995294;28;20170;-87
2022/10/11 01:51:15;;;;;;;16.23;7.93;;;10.80;95.20;;;;;;4996237;28;20170;-86
2022/10/11 01:54:05;;;;;;;13.20;7.33;;;11.10;92.00;;;;;;4991495;28;20179;-86
2022/10/11 01:56:51;;;;;;;15.83;7.63;;;10.90;90.90;;;;;;4995650;28;20211;-86
2022/10/11 01:59:50;;;;;;;14.03;7.20;;;10.70;91.90;;;;;;4975440;28;20175;-87
2022/10/11 02:02:31;;;;;;;15.17;8.20;;;10.70;94.20;;;;;;4979463;28;20184;-85
2022/10/11 02:05:08;;;;;;;16.73;8.43;;;10.80;92.90;;;;;;4980362;28;20176;-86
2022/10/11 02:08:06;;;;;;;20.40;8.37;;;10.90;90.90;;;;;;4976032;28;20179;-86
2022/10/11 02:10:43;;;;;;;15.57;7.37;;;10.80;90.50;;;;;;4975934;28;20196;-86
2022/10/11 02:13:17;;;;;;;15.77;7.30;;;11.10;90.20;;;;;;4986402;28;20171;-86
2022/10/11 02:15:48;;;;;;;17.03;7.87;;;10.80;90.60;;;;;;4986596;28;20378;-87
2022/10/11 02:18:47;;;;;;;18.87;7.87;;;10.70;91.40;;;;;;4988198;28;20167;-87
2022/10/11 02:21:20;;;;;;;16.30;7.30;;;10.80;92.60;;;;;;4980264;28;20235;-87
2022/10/11 02:24:51;;;;;;;14.37;7.43;;;10.90;91.60;;;;;;4983271;28;20160;-87
2022/10/11 02:27:47;;;;;;;19.63;7.87;;;10.90;91.00;;;;;;4982478;28;20223;-88
2022/10/11 02:30:38;;;;;;;18.33;8.10;;;10.90;90.50;;;;;;4979189;28;20200;-87
2022/10/11 02:33:11;;;;;;;19.33;7.50;;;10.70;91.20;;;;;;4981500;28;20183;-86
2022/10/11 02:35:43;;;;;;;19.23;8.23;;;10.60;92.90;;;;;;4982973;28;20255;-87
2022/10/11 02:38:20;;;;;;;20.00;7.27;;;10.50;94.40;;;;;;4983769;28;20175;-88
2022/10/11 02:40:58;;;;;;;17.43;8.57;;;10.30;95.90;;;;;;4981635;28;20215;-85
2022/10/11 02:43:39;;;;;;;20.37;10.30;;;10.40;96.90;;;;;;4977742;28;20180;-87
2022/10/11 02:46:14;;;;;;;20.87;11.60;;;10.40;96.70;;;;;;4979326;28;20215;-87
2022/10/11 02:48:43;;;;;;;21.37;11.30;;;10.40;96.20;;;;;;4974745;28;20168;-87
2022/10/11 02:51:17;;;;;;;26.37;14.37;;;10.40;95.00;;;;;;4974500;28;20242;-87
2022/10/11 02:53:44;;;;;;;29.70;15.93;;;10.60;94.20;;;;;;4975819;28;20184;-87
2022/10/11 02:56:13;;;;;;;25.70;16.10;;;10.60;92.20;;;;;;4981814;28;20164;-86
2022/10/11 02:58:39;;;;;;;28.13;15.17;;;10.80;89.80;;;;;;4989787;28;20178;-87
2022/10/11 03:01:05;;;;;;;27.93;15.27;;;10.60;88.70;;;;;;4992426;28;20578;-87
2022/10/11 03:03:31;;;;;;;28.63;14.70;;;10.50;91.10;;;;;;4990466;28;20182;-87
2022/10/11 03:06:03;;;;;;;25.50;13.57;;;10.40;92.00;;;;;;4989680;28;20184;-87
2022/10/11 03:08:29;;;;;;;22.43;12.00;;;10.40;92.90;;;;;;4980330;28;20179;-87
2022/10/11 03:10:58;;;;;;;20.93;12.27;;;10.40;92.60;;;;;;4978476;28;20551;-86
2022/10/11 03:13:36;;;;;;;25.30;11.43;;;10.60;90.10;;;;;;4979584;28;20194;-86
2022/10/11 03:16:12;;;;;;;20.53;11.83;;;10.70;85.20;;;;;;4977822;28;20179;-87
2022/10/11 03:18:40;;;;;;;19.43;11.57;;;10.60;83.60;;;;;;4974833;28;20179;-86
2022/10/11 03:21:11;;;;;;;20.10;10.33;;;10.50;88.20;;;;;;4975617;28;20219;-86
2022/10/11 03:23:41;;;;;;;17.90;10.67;;;10.30;91.00;;;;;;4975926;28;20168;-87
2022/10/11 03:26:36;;;;;;;20.53;9.17;;;10.40;91.40;;;;;;4976340;28;20187;-86
2022/10/11 03:29:02;;;;;;;16.47;9.10;;;10.30;90.40;;;;;;4979775;28;20187;-87
2022/10/11 03:31:28;;;;;;;19.73;9.40;;;10.20;91.00;;;;;;4980571;28;20178;-86
2022/10/11 03:33:54;;;;;;;21.40;8.67;;;10.20;92.60;;;;;;4976702;28;20188;-88
2022/10/11 03:36:22;;;;;;;15.03;8.47;;;10.10;92.60;;;;;;4975298;28;20188;-87
2022/10/11 03:41:39;;;;;;;15.07;7.63;;;10.10;92.80;;;;;;4977027;28;20215;-88
2022/10/11 03:44:06;;;;;;;15.57;6.53;;;10.10;92.10;;;;;;4975726;28;20184;-88
2022/10/11 03:46:32;;;;;;;11.87;6.73;;;10.20;92.40;;;;;;5015323;28;20217;-88
2022/10/11 03:48:58;;;;;;;14.03;6.83;;;10.10;93.10;;;;;;5018955;28;20167;-86
2022/10/11 03:51:54;;;;;;;16.87;6.53;;;10.00;92.80;;;;;;5020886;28;20204;-88
2022/10/11 03:54:20;;;;;;;14.50;6.90;;;9.90;92.10;;;;;;5019932;28;20198;-87
2022/10/11 03:56:47;;;;;;;11.57;5.73;;;10.10;90.20;;;;;;5020503;28;20265;-86
2022/10/11 03:59:22;;;;;;;19.20;6.07;;;10.10;90.00;;;;;;5028723;28;20162;-87
2022/10/11 04:02:17;;;;;;;13.70;6.50;;;10.00;91.00;;;;;;5032498;28;20209;-87
2022/10/11 04:04:45;;;;;;;13.67;5.97;;;9.90;91.50;;;;;;5027991;28;20205;-87
2022/10/11 04:07:56;;;;;;;;;;;;;;;;;;;;;
2022/10/11 04:11:20;;;;;;;;;;;;;;;;;;;;;
2022/10/11 04:17:11;;;;;;;10.90;5.73;;;9.90;90.90;;;;;;5021921;28;20530;-88
2022/10/11 04:19:38;;;;;;;17.00;5.93;;;9.90;89.20;;;;;;5023688;28;20190;-89
2022/10/11 04:22:04;;;;;;;13.17;6.23;;;9.90;88.90;;;;;;5022055;28;20198;-87
2022/10/11 04:24:33;;;;;;;18.13;6.60;;;9.80;90.30;;;;;;5021760;28;20639;-85
2022/10/11 04:27:41;;;;;;;14.37;6.60;;;9.90;90.60;;;;;;5018201;28;20186;-87
2022/10/11 04:30:35;;;;;;;16.23;6.27;;;9.70;90.50;;;;;;5022400;28;20197;-87
2022/10/11 04:33:33;;;;;;;10.57;5.67;;;9.80;91.60;;;;;;5021002;28;20170;-87
2022/10/11 04:36:42;;;;;;;13.07;5.70;;;9.90;91.10;;;;;;5018494;28;20174;-88
2022/10/11 04:39:08;;;;;;;11.60;5.97;;;9.80;91.00;;;;;;5015040;28;20182;-87
2022/10/11 04:42:22;;;;;;;15.17;6.30;;;9.80;90.30;;;;;;5018163;28;20208;-88
2022/10/11 04:44:48;;;;;;;13.60;6.23;;;9.60;89.60;;;;;;5017110;28;20527;-86
2022/10/11 04:47:14;;;;;;;14.27;6.57;;;10.00;88.60;;;;;;5017722;28;20177;-87
2022/10/11 04:49:39;;;;;;;16.07;6.53;;;9.80;87.60;;;;;;5016398;28;20655;-86
2022/10/11 04:52:05;;;;;;;14.83;6.60;;;9.70;89.80;;;;;;5016899;28;20522;-87
2022/10/11 04:54:31;;;;;;;13.60;6.13;;;9.80;90.30;;;;;;5016569;28;20229;-87
2022/10/11 04:56:59;;;;;;;15.50;6.33;;;9.90;90.20;;;;;;5021573;28;20171;-86
2022/10/11 04:59:27;;;;;;;16.73;5.90;;;9.90;89.70;;;;;;5024691;28;20187;-87
2022/10/11 05:01:52;;;;;;;13.57;6.33;;;9.90;90.20;;;;;;5017995;28;20235;-87
2022/10/11 05:04:18;;;;;;;15.07;6.30;;;10.00;89.30;;;;;;5026802;28;20182;-87
2022/10/11 05:06:46;;;;;;;16.13;6.13;;;9.90;86.50;;;;;;5021953;28;20249;-85
2022/10/11 05:09:12;;;;;;;12.83;6.13;;;10.20;83.20;;;;;;5036387;28;20205;-89
2022/10/11 05:11:37;;;;;;;14.73;6.10;;;10.30;78.30;;;;;;5039323;28;20170;-87
2022/10/11 05:14:03;;;;;;;15.73;6.63;;;10.10;77.30;;;;;;5037213;28;20186;-87
2022/10/11 05:16:30;;;;;;;15.43;6.57;;;10.10;80.20;;;;;;5040165;28;20170;-88
2022/10/11 05:18:57;;;;;;;13.10;6.50;;;9.90;82.90;;;;;;5023667;28;20221;-88
2022/10/11 05:21:26;;;;;;;13.57;6.27;;;10.00;84.40;;;;;;5025726;28;20222;-89
2022/10/11 05:23:55;;;;;;;15.40;6.70;;;10.10;84.50;;;;;;5010833;28;20168;-86
2022/10/11 05:26:22;;;;;;;14.60;6.53;;;10.00;84.10;;;;;;4984203;28;20244;-88
2022/10/11 05:28:51;;;;;;;12.33;5.90;;;9.90;85.60;;;;;;4976915;28;20232;-87
2022/10/11 05:31:55;;;;;;;17.87;7.00;;;10.00;86.30;;;;;;4963501;28;20179;-87
2022/10/11 05:34:21;;;;;;;13.87;6.23;;;10.00;86.40;;;;;;4981102;28;20164;-86
2022/10/11 05:36:49;;;;;;;14.20;6.43;;;10.10;85.40;;;;;;4984474;28;20176;-88
2022/10/11 05:39:14;;;;;;;13.80;5.97;;;10.10;81.60;;;;;;4983637;28;20488;-86
2022/10/11 05:41:40;;;;;;;13.57;6.53;;;10.00;80.80;;;;;;5011743;28;20210;-87
2022/10/11 05:44:07;;;;;;;11.97;6.57;;;10.10;81.90;;;;;;5036051;28;20178;-88
2022/10/11 05:46:34;;;;;;;15.57;6.80;;;9.90;84.00;;;;;;5035168;28;20186;-89
2022/10/11 05:49:00;;;;;;;11.90;5.80;;;9.90;82.10;;;;;;5034212;28;20252;-86
2022/10/11 05:51:28;;;;;;;18.23;6.80;;;9.90;80.40;;;;;;5036683;28;20182;-88
2022/10/11 05:53:54;;;;;;;13.53;6.93;;;9.80;81.00;;;;;;5035837;28;20166;-85
2022/10/11 05:56:24;;;;;;;18.57;6.73;;;9.90;78.80;;;;;;5026839;28;20199;-87
2022/10/11 05:58:51;;;;;;;15.43;7.20;;;9.90;76.30;;;;;;5024163;28;20185;-89
2022/10/11 06:01:23;;;;;;;16.63;7.13;;;9.90;78.10;;;;;;5025373;28;20222;-87
2022/10/11 06:03:49;;;;;;;16.47;7.30;;;9.90;78.40;;;;;;5025185;28;20177;-87
2022/10/11 06:06:17;;;;;;;19.17;7.67;;;10.00;79.30;;;;;;5025226;28;20170;-88
2022/10/11 06:08:43;;;;;;;14.73;6.93;;;10.10;80.60;;;;;;5029947;28;20190;-86
2022/10/11 06:11:12;;;;;;;14.50;6.93;;;9.90;80.50;;;;;;5027903;28;20201;-84
2022/10/11 06:13:38;;;;;;;17.73;7.03;;;10.00;78.90;;;;;;5009523;28;20206;-88
2022/10/11 06:16:08;;;;;;;20.20;7.03;;;10.10;78.50;;;;;;5031310;28;20197;-88
2022/10/11 06:18:44;;;;;;;17.67;7.07;;;10.00;78.50;;;;;;5022566;28;20198;-87
2022/10/11 06:21:12;;;;;;;12.57;6.97;;;10.10;78.60;;;;;;5009975;28;20269;-89
2022/10/11 06:23:38;;;;;;;15.00;6.93;;;10.10;77.40;;;;;;5000508;28;20179;-87
2022/10/11 06:26:07;;;;;;;17.40;6.90;;;9.90;76.20;;;;;;4983586;28;20197;-87
2022/10/11 06:28:34;;;;;;;19.27;6.57;;;10.20;76.10;;;;;;5009415;28;20254;-89
2022/10/11 06:31:01;;;;;;;16.20;7.23;;;10.30;73.90;;;;;;4981549;28;20206;-89
2022/10/11 06:33:27;;;;;;;21.07;7.40;;;10.50;67.90;;;;;;4998246;28;20171;-89
2022/10/11 06:36:01;;;;;;;22.73;7.50;;;10.50;58.50;;;;;;4999918;28;20294;-90
2022/10/11 06:38:28;;;;;;;15.77;7.33;;;10.50;57.70;;;;;;4997047;28;20171;-88
2022/10/11 06:40:53;;;;;;;12.80;7.63;;;10.40;58.50;;;;;;4997228;28;20313;-86
2022/10/11 06:43:20;;;;;;;14.37;6.83;;;10.40;60.60;;;;;;4997019;28;20214;-90
2022/10/11 06:45:46;;;;;;;18.47;6.80;;;10.50;62.80;;;;;;4999766;28;20270;-89
2022/10/11 06:48:12;;;;;;;15.33;7.13;;;10.50;64.80;;;;;;4996418;28;20376;-89
2022/10/11 06:50:38;;;;;;;21.60;7.17;;;10.60;65.00;;;;;;4995350;28;20658;-89
2022/10/11 06:53:05;;;;;;;17.33;6.77;;;10.60;60.60;;;;;;4987642;28;20562;-88
2022/10/11 06:55:31;;;;;;;20.50;7.10;;;10.60;61.70;;;;;;4977191;28;20231;-88
2022/10/11 06:57:57;;;;;;;18.70;6.43;;;10.70;61.60;;;;;;4976071;28;20206;-88
2022/10/11 07:00:23;;;;;;;18.00;7.13;;;10.80;62.30;;;;;;4976937;28;20199;-88
2022/10/11 07:02:48;;;;;;;15.10;7.07;;;10.80;60.30;;;;;;4976955;28;20180;-89
2022/10/11 07:05:15;;;;;;;13.37;6.33;;;10.70;61.20;;;;;;4975830;28;20311;-87
2022/10/11 07:07:41;;;;;;;15.13;6.93;;;10.80;61.50;;;;;;4977588;28;20171;-89
2022/10/11 07:10:07;;;;;;;18.07;6.43;;;10.90;59.60;;;;;;4975197;28;20190;-89
2022/10/11 07:12:33;;;;;;;15.97;6.63;;;11.00;58.70;;;;;;4975259;28;20226;-88
2022/10/11 07:14:59;;;;;;;20.20;6.70;;;11.10;57.10;;;;;;4975085;28;20196;-90
2022/10/11 07:17:24;;;;;;;15.63;6.70;;;11.10;56.80;;;;;;4976121;28;20179;-88
2022/10/11 07:19:50;;;;;;;15.80;7.27;;;11.20;53.80;;;;;;4977561;28;20258;-89
2022/10/11 07:22:16;;;;;;;13.67;7.27;;;11.30;52.00;;;;;;4975670;28;20206;-89
2022/10/11 07:24:43;;;;;;;17.63;7.40;;;11.60;50.40;;;;;;4980983;28;20176;-88
2022/10/11 07:27:08;;;;;;;16.60;7.77;;;11.60;46.20;;;;;;4979456;28;20183;-91
2022/10/11 07:29:34;;;;;;;18.70;8.13;;;11.90;45.60;;;;;;4982003;28;20195;-89
2022/10/11 07:32:00;;;;;;;18.23;7.77;;;12.00;42.90;;;;;;5002795;28;20222;-87
2022/10/11 07:34:25;;;;;;;17.77;8.00;;;11.90;41.50;;;;;;4982272;28;20172;-89
2022/10/11 07:36:51;;;;;;;16.07;8.47;;;12.00;41.00;;;;;;4981944;28;20168;-89
2022/10/11 07:39:16;;;;;;;18.43;7.93;;;12.20;39.60;;;;;;4981716;28;20523;-89
2022/10/11 07:41:42;;;;;;;23.07;8.60;;;12.20;38.20;;;;;;4980143;28;20242;-87
2022/10/11 07:44:08;;;;;;;14.93;8.03;;;12.20;36.70;;;;;;4978699;28;20168;-87
2022/10/11 07:46:34;;;;;;;15.37;9.03;;;12.20;38.80;;;;;;4979004;28;20629;-85
2022/10/11 07:49:00;;;;;;;16.07;9.10;;;12.40;38.80;;;;;;4985931;28;20703;-88
2022/10/11 07:51:26;;;;;;;15.17;8.37;;;12.60;31.20;;;;;;4987405;28;20200;-87
2022/10/11 07:53:54;;;;;;;20.67;8.63;;;12.60;30.30;;;;;;4979862;28;20813;-89
2022/10/11 07:56:25;;;;;;;23.40;9.23;;;12.60;30.00;;;;;;4986548;28;20248;-88
2022/10/11 07:58:54;;;;;;;25.07;9.70;;;12.60;29.80;;;;;;4990984;28;20644;-87
2022/10/11 08:01:20;;;;;;;17.27;8.90;;;12.80;29.70;;;;;;4979332;28;20254;-86
2022/10/11 08:03:47;;;;;;;22.17;8.67;;;12.70;31.00;;;;;;4977622;28;20179;-87
2022/10/11 08:06:16;;;;;;;25.17;9.83;;;12.70;32.60;;;;;;4977848;28;20288;-88
2022/10/11 08:08:42;;;;;;;26.17;9.30;;;12.70;30.00;;;;;;4980957;28;20171;-85
2022/10/11 08:11:07;;;;;;;25.13;9.57;;;12.90;26.80;;;;;;4983679;28;20172;-87
2022/10/11 08:13:34;;;;;;;24.80;8.83;;;13.10;23.20;;;;;;4967357;28;20257;-86
2022/10/11 08:15:59;;;;;;;23.33;8.90;;;13.20;20.50;;;;;;4980539;28;20177;-88
2022/10/11 08:18:26;;;;;;;21.10;9.83;;;13.30;20.10;;;;;;4983575;28;20251;-87
2022/10/11 08:20:52;;;;;;;26.47;9.87;;;13.50;21.00;;;;;;4991779;28;20226;-85
2022/10/11 08:23:18;;;;;;;20.20;9.50;;;13.60;16.80;;;;;;4999012;28;20156;-86
2022/10/11 08:25:46;;;;;;;19.37;10.00;;;13.80;13.60;;;;;;4998447;28;20178;-88
2022/10/11 08:28:16;;;;;;;26.00;9.77;;;13.90;10.10;;;;;;4985548;28;20643;-86
2022/10/11 08:30:53;;;;;;;21.10;8.83;;;14.10;7.60;;;;;;4981959;28;20651;-88
2022/10/11 08:33:23;;;;;;;24.70;8.87;;;14.20;1.40;;;;;;4980052;28;20186;-86
2022/10/11 08:35:55;;;;;;;20.83;8.77;;;14.40;1.00;;;;;;4979114;28;20689;-86
2022/10/11 08:38:21;;;;;;;20.47;9.07;;;14.40;1.00;;;;;;4978539;28;20181;-87
2022/10/11 08:40:54;;;;;;;19.13;8.73;;;14.60;1.00;;;;;;4978628;28;20202;-89
2022/10/11 08:43:35;;;;;;;24.93;9.00;;;14.70;1.00;;;;;;4981366;28;20631;-89
2022/10/11 08:46:02;;;;;;;23.60;8.90;;;14.70;1.00;;;;;;4980725;28;20202;-88
2022/10/11 08:48:35;;;;;;;20.60;8.27;;;14.70;1.00;;;;;;4981383;28;20187;-89
2022/10/11 08:51:08;;;;;;;18.50;8.27;;;14.70;1.00;;;;;;4978591;28;20210;-89
2022/10/11 08:54:12;;;;;;;19.83;8.97;;;14.70;1.00;;;;;;4980306;28;20675;-90
2022/10/11 08:56:40;;;;;;;17.93;8.47;;;14.90;1.00;;;;;;4977059;28;20636;-90
2022/10/11 08:59:12;;;;;;;21.07;8.43;;;15.10;1.00;;;;;;4979513;28;20644;-84
2022/10/11 09:01:45;;;;;;;22.60;8.07;;;15.10;1.00;;;;;;4978260;28;20211;-87
2022/10/11 09:04:15;;;;;;;18.23;7.53;;;15.10;1.00;;;;;;4983391;28;20183;-88
2022/10/11 09:07:15;;;;;;;19.87;7.63;;;15.40;1.00;;;;;;4992572;28;20202;-86
2022/10/11 09:09:59;;;;;;;15.60;7.53;;;15.00;1.00;;;;;;4985408;28;20214;-87
2022/10/11 09:12:47;;;;;;;20.47;7.07;;;15.10;1.00;;;;;;4977882;28;20633;-87
2022/10/11 09:15:40;;;;;;;18.90;8.77;;;15.30;1.00;;;;;;4978045;28;20176;-87
2022/10/11 09:18:17;;;;;;;19.47;8.03;;;15.40;1.00;;;;;;4977660;28;20273;-88
2022/10/11 09:20:55;;;;;;;20.40;8.13;;;15.60;1.00;;;;;;4978633;28;20692;-86
2022/10/11 09:23:58;;;;;;;19.37;7.23;;;15.70;1.00;;;;;;4977746;28;20202;-86
2022/10/11 09:26:29;;;;;;;19.60;7.40;;;16.00;1.00;;;;;;4978273;28;20176;-88
2022/10/11 09:29:13;;;;;;;20.07;7.90;;;16.00;1.00;;;;;;4982671;28;20163;-87
2022/10/11 09:31:41;;;;;;;18.23;7.50;;;16.00;1.00;;;;;;4981958;28;20707;-87
2022/10/11 09:34:13;;;;;;;19.33;7.63;;;16.10;1.00;;;;;;4979525;28;20224;-89
2022/10/11 09:36:41;;;;;;;18.97;6.83;;;16.20;1.00;;;;;;4977536;28;20636;-89
2022/10/11 09:39:29;;;;;;;12.83;6.37;;;16.40;1.00;;;;;;4978207;28;20164;-88
2022/10/11 09:42:00;;;;;;;21.70;7.13;;;16.40;1.00;;;;;;4976558;28;20215;-87
2022/10/11 09:44:33;;;;;;;25.40;7.77;;;16.30;1.00;;;;;;4977698;28;20174;-88
2022/10/11 09:47:00;;;;;;;16.97;7.33;;;16.50;1.00;;;;;;4980088;28;20327;-87
2022/10/11 09:49:49;;;;;;;17.63;6.40;;;16.60;1.00;;;;;;4977537;28;20176;-90
2022/10/11 09:52:18;;;;;;;12.30;3.00;;;16.40;1.00;;;;;;4958797;28;20191;-87
2022/10/11 09:54:47;;;;;;;11.60;3.40;;;16.20;1.00;;;;;;4977751;28;20183;-89
2022/10/11 09:57:21;;;;;;;9.00;3.03;;;16.10;1.00;;;;;;4977721;28;20235;-88
2022/10/11 10:00:06;;;;;;;11.20;2.60;;;16.10;1.00;;;;;;4977870;28;20243;-88
2022/10/11 10:02:48;;;;;;;14.40;2.57;;;16.30;1.00;;;;;;4982721;28;20254;-86
2022/10/11 10:05:21;;;;;;;10.33;3.07;;;16.30;1.00;;;;;;4988576;28;20190;-88
2022/10/11 10:07:59;;;;;;;9.30;2.93;;;16.10;1.00;;;;;;4992318;28;20177;-89
2022/10/11 10:10:44;;;;;;;10.70;2.97;;;16.00;1.00;;;;;;4980296;28;20266;-89
2022/10/11 10:13:28;;;;;;;11.70;3.30;;;15.90;1.00;;;;;;4981483;28;20542;-87
2022/10/11 10:15:58;;;;;;;8.13;2.63;;;16.00;1.00;;;;;;4980970;28;20195;-89
2022/10/11 10:18:23;;;;;;;8.93;2.50;;;15.90;1.00;;;;;;4978305;28;20207;-89
2022/10/11 10:20:56;;;;;;;10.23;2.70;;;16.00;1.00;;;;;;4981922;28;20214;-87
2022/10/11 10:23:31;;;;;;;10.03;2.13;;;16.30;1.00;;;;;;4984613;28;20597;-88
2022/10/11 10:26:18;;;;;;;8.67;2.37;;;16.40;1.00;;;;;;4979231;28;20172;-88
2022/10/11 10:29:08;;;;;;;7.77;2.10;;;16.10;1.00;;;;;;4988294;28;20202;-87
2022/10/11 10:31:36;;;;;;;11.83;2.10;;;15.90;1.00;;;;;;4998273;28;20186;-88
2022/10/11 10:34:10;;;;;;;9.77;2.50;;;15.80;1.00;;;;;;4997980;28;20167;-87
2022/10/11 10:36:50;;;;;;;12.57;2.53;;;15.90;1.00;;;;;;4998352;28;20155;-88
2022/10/11 10:46:21;;;;;;;9.50;2.63;;;16.20;1.00;;;;;;4983624;28;20162;-88
2022/10/11 10:49:42;;;;;;;;;;;;;;;;;;;;;
2022/10/11 10:52:40;;;;;;;8.90;3.20;;;16.10;1.00;;;;;;4983095;28;20600;-89
2022/10/11 10:55:37;;;;;;;9.10;2.70;;;16.10;1.00;;;;;;4983277;28;20194;-86
2022/10/11 10:58:09;;;;;;;8.03;2.67;;;16.20;1.00;;;;;;4986137;28;20181;-89
2022/10/11 11:00:54;;;;;;;12.30;2.53;;;16.10;1.00;;;;;;4978526;28;20219;-85
2022/10/11 11:03:42;;;;;;;6.73;2.27;;;16.40;1.00;;;;;;4976021;28;20234;-90
2022/10/11 11:06:37;;;;;;;10.90;2.53;;;16.40;1.00;;;;;;4977414;28;20647;-88
2022/10/11 11:09:21;;;;;;;8.20;1.90;;;16.20;99.90;;;;;;4975369;28;20183;-86
2022/10/11 11:12:16;;;;;;;6.77;2.03;;;16.20;99.90;;;;;;4976625;28;20683;-86
2022/10/11 11:15:01;;;;;;;8.60;2.40;;;15.90;99.90;;;;;;4974989;28;20172;-86
2022/10/11 11:17:55;;;;;;;8.70;2.33;;;15.80;99.90;;;;;;4975099;28;20183;-86
2022/10/11 11:20:46;;;;;;;10.47;2.60;;;15.80;99.90;;;;;;4975714;28;20256;-87
2022/10/11 11:23:18;;;;;;;9.47;2.80;;;16.00;99.90;;;;;;4991352;28;20186;-86
2022/10/11 11:25:57;;;;;;;7.40;2.10;;;16.00;99.90;;;;;;5013701;28;20201;-87
2022/10/11 11:28:32;;;;;;;10.27;2.40;;;16.00;99.90;;;;;;5019305;28;20173;-86
2022/10/11 11:31:28;;;;;;;9.43;2.37;;;16.00;99.90;;;;;;5015077;28;20259;-86
2022/10/11 11:34:07;;;;;;;7.80;2.20;;;16.00;99.90;;;;;;5023642;28;20194;-89
2022/10/11 11:36:53;;;;;;;9.53;2.53;;;16.00;99.90;;;;;;5016997;28;20237;-88
2022/10/11 11:39:29;;;;;;;8.53;3.30;;;16.10;99.90;;;;;;5001455;28;20259;-85
2022/10/11 11:42:14;;;;;;;13.77;2.57;;;16.10;1.00;;;;;;5004114;28;20282;-87
2022/10/11 11:44:49;;;;;;;8.80;2.20;;;16.10;99.90;;;;;;4989199;28;20182;-84
2022/10/11 11:47:28;;;;;;;10.70;2.67;;;16.30;99.90;;;;;;5003690;28;20182;-85
2022/10/11 11:50:22;;;;;;;9.63;2.03;;;16.40;99.90;;;;;;5006965;28;20313;-86
2022/10/11 11:52:53;;;;;;;8.13;2.00;;;16.20;99.90;;;;;;5018150;28;20256;-86
2022/10/11 11:55:48;;;;;;;4.97;1.57;;;16.30;99.90;;;;;;5008309;28;20210;-85
2022/10/11 11:59:02;;;;;;;6.67;1.50;;;16.00;99.90;;;;;;4998874;28;20179;-88
2022/10/11 12:01:45;;;;;;;6.80;1.90;;;15.90;99.90;;;;;;5028697;28;20198;-84
2022/10/11 12:04:28;;;;;;;5.37;1.90;;;15.90;99.90;;;;;;5034220;28;20825;-85
2022/10/11 12:07:15;;;;;;;8.60;2.10;;;15.90;99.90;;;;;;5021417;28;20530;-86
2022/10/11 12:09:51;;;;;;;8.67;2.23;;;15.90;99.90;;;;;;5017654;28;20253;-86
2022/10/11 12:12:35;;;;;;;8.90;2.00;;;15.90;99.90;;;;;;5020108;28;20205;-85
2022/10/11 12:15:07;;;;;;;9.20;2.63;;;15.90;99.90;;;;;;5017504;28;20174;-86
2022/10/11 12:18:15;;;;;;;9.80;2.53;;;16.00;99.90;;;;;;5016813;28;20181;-85
2022/10/11 12:21:20;;;;;;;8.13;2.37;;;16.10;99.90;;;;;;4982240;28;20214;-90
2022/10/11 12:23:52;;;;;;;9.43;2.00;;;16.00;99.90;;;;;;4976503;28;20230;-87
2022/10/11 12:26:32;;;;;;;8.77;2.17;;;16.00;99.90;;;;;;4993981;28;20180;-85
2022/10/11 12:29:41;;;;;;;8.63;2.57;;;16.20;99.90;;;;;;4993646;28;20218;-85
2022/10/11 12:32:09;;;;;;;7.60;2.27;;;16.00;99.90;;;;;;4997992;28;20203;-87
2022/10/11 12:34:40;;;;;;;7.17;1.90;;;16.00;99.90;;;;;;5008137;28;20158;-88
2022/10/11 12:37:21;;;;;;;6.77;2.03;;;16.20;99.90;;;;;;5026175;28;20334;-85
2022/10/11 12:39:54;;;;;;;7.73;2.47;;;16.10;99.90;;;;;;4988365;28;20179;-87
2022/10/11 12:42:33;;;;;;;7.03;2.33;;;16.40;99.90;;;;;;4993089;28;20187;-86
2022/10/11 12:45:11;;;;;;;8.73;2.30;;;16.50;99.90;;;;;;5028790;28;20230;-86
2022/10/11 12:47:47;;;;;;;11.43;2.87;;;16.60;99.90;;;;;;5024859;28;20245;-87
2022/10/11 12:50:32;;;;;;;9.80;2.30;;;16.60;99.90;;;;;;5029071;28;20198;-88
2022/10/11 12:53:12;;;;;;;7.67;2.23;;;16.50;99.90;;;;;;5027687;28;20186;-85
2022/10/11 12:56:03;;;;;;;10.07;1.77;;;16.50;99.90;;;;;;5013945;28;20182;-85
2022/10/11 12:58:45;;;;;;;6.40;1.90;;;16.50;99.90;;;;;;5003243;28;20242;-86
2022/10/11 13:01:10;;;;;;;8.43;2.47;;;16.50;99.90;;;;;;5005578;28;20214;-84
2022/10/11 13:03:51;;;;;;;4.33;1.80;;;16.40;99.90;;;;;;5002696;28;20240;-87
2022/10/11 13:06:55;;;;;;;6.73;2.57;;;16.20;99.90;;;;;;4997183;28;20651;-86
2022/10/11 13:09:39;;;;;;;4.50;1.67;;;16.20;99.90;;;;;;4997305;28;20178;-87
2022/10/11 13:12:12;;;;;;;7.07;2.00;;;16.50;99.90;;;;;;4995520;28;20170;-85
2022/10/11 13:14:51;;;;;;;8.20;2.10;;;16.40;99.90;;;;;;4995951;28;20186;-86
2022/10/11 13:17:25;;;;;;;9.20;2.60;;;16.30;99.90;;;;;;4998913;28;20222;-86
2022/10/11 13:20:18;;;;;;;7.47;2.17;;;16.50;99.90;;;;;;4998967;28;20182;-87
2022/10/11 13:22:52;;;;;;;6.10;2.03;;;16.60;99.90;;;;;;5008304;28;20187;-88
2022/10/11 13:25:27;;;;;;;8.30;2.17;;;16.50;99.90;;;;;;5014819;28;20511;-89
2022/10/11 13:27:56;;;;;;;8.50;2.43;;;16.40;99.90;;;;;;5004058;28;20174;-88
2022/10/11 13:30:25;;;;;;;9.20;2.33;;;16.00;99.90;;;;;;5015980;28;20645;-88
2022/10/11 13:32:51;;;;;;;9.13;2.53;;;16.10;99.90;;;;;;5017588;28;20642;-85
2022/10/11 13:35:30;;;;;;;10.50;2.23;;;16.10;99.90;;;;;;5020675;28;20171;-85
2022/10/11 13:37:56;;;;;;;10.83;2.63;;;16.20;99.90;;;;;;5015533;28;20181;-84
2022/10/11 13:40:22;;;;;;;8.77;2.33;;;16.30;99.90;;;;;;5005291;28;20206;-85